Station: Rhyll  

  Atmospheric Gas Attenuation - ITU Rec 676-11   ----------------- dB/100km -----------------
Date Time Temp RH % AH g/m3 Dew Point Wind Direction Speed kph Gust kph Barometer mB Rainfall Since 9am 24GHz 47GHz 76GHz 122GHz 134GHz 241GHz
08/05 12:30 15.7 69 9.23 10 22 35 1022.1 0.2 20.8 26.7 41.8 109.6 105.0 361.7
08/05 12:20 15.2 70 9.09 9.9 22 28 1022 0.2 20.6 26.6 41.4 108.7 103.8 357.5
08/05 12:10 14.5 77 9.58 10.5 17 19 1022.3 0.2 21.6 27.6 43.8 115.1 111.4 383.9
08/05 12:00 14.2 80 9.77 10.8 17 32 1022.4 0.2 22.1 28.1 44.8 117.7 114.4 394.5
08/05 11:50 13 82 9.3 10.1 20 26 1022.5 0.2 21.1 27.6 43.5 114.2 109.7 377.9
08/05 11:40 13.8 84 10.01 11.1 20 30 1022.8 0.2 22.6 28.6 46.1 121.1 118.4 408.4
08/05 11:30 13.9 85 10.19 11.4 17 28 1022.6 0.2 23.0 28.9 46.8 122.9 120.8 416.6
08/05 11:20 13.9 81 9.71 10.8 24 35 1022.8 0.2 21.9 28.1 44.7 117.5 114.1 393.3
08/05 11:10 15.1 70 9.03 9.8 17 22 1022.5 0 20.4 26.6 41.3 108.3 103.2 355.3
08/05 11:00 15 72 9.23 10 17 28 1022.4 0 20.9 26.9 42.1 110.6 106.0 365.0
08/05 10:50 14.9 74 9.43 10.3 19 28 1022.2 0 21.3 27.3 43.0 112.9 108.8 374.8
08/05 10:40 14.9 79 10.07 11.4 13 17 1022.1 0 22.7 28.3 45.6 120.0 117.5 405.3
08/05 10:30 14.7 80 10.07 11.3 17 30 1022.1 0 22.7 28.4 45.8 120.3 117.8 406.4
08/05 10:20 14.3 81 9.95 11.2 19 28 1021.7 0 22.4 28.3 45.5 119.5 116.7 402.5
08/05 10:10 15.3 76 9.92 11.1 13 17 1021.6 0 22.3 27.9 44.8 117.6 114.8 395.9
08/05 10:00 14.3 74 9.09 9.7 20 37 1021.4 0 20.6 26.9 41.9 109.9 105.0 361.4
08/05 09:50 14.3 83 10.2 11.4 20 24 1021.5 0 23.0 28.7 46.5 122.3 120.2 414.6
08/05 09:40 13.4 85 9.88 10.9 15 19 1021.7 0 22.3 28.5 45.7 120.1 117.1 403.8
08/05 09:30 13.7 83 9.83 10.9 22 37 1021.8 0 22.2 28.3 45.3 119.1 116.0 399.8
08/05 09:20 14.2 80 9.77 10.9 15 22 1021.6 0 22.1 28.0 44.8 117.6 114.4 394.3
08/05 09:10 13.9 80 9.59 10.5 15 19 1021.5 0 21.7 27.8 44.2 116.0 112.3 387.1
08/05 09:00 14.5 76 9.45 10.3 17 30 1021.4 0 21.4 27.4 43.3 113.6 109.5 377.5
08/05 08:50 14 75 9.05 9.6 17 24 1021.2 13 20.5 26.9 41.9 109.9 104.8 360.8
08/05 08:40 13.8 80 9.53 10.4 13 19 1021 13 21.6 27.7 44.0 115.5 111.6 384.6
08/05 08:30 13.3 84 9.71 10.7 19 35 1020.8 13 22.0 28.2 45.0 118.2 114.8 395.7
08/05 08:20 13.3 86 9.94 11.1 24 35 1020.6 13 22.5 28.6 46.0 120.8 118.0 406.9
08/05 08:10 13 82 9.3 10.1 26 33 1020.7 13 21.1 27.6 43.4 114.0 109.6 377.3
08/05 08:00 13.2 81 9.3 10 17 32 1020.4 13 21.1 27.5 43.3 113.7 109.2 376.3
08/05 07:50 12.9 82 9.24 9.9 19 26 1020.3 13 21.0 27.5 43.2 113.5 108.8 374.8
08/05 07:40 13.6 81 9.53 10.4 26 35 1020.2 13 21.6 27.8 44.0 115.7 111.8 385.3
08/05 07:30 13.8 77 9.17 9.8 17 28 1019.9 12.8 20.8 27.1 42.4 111.3 106.6 367.1
08/05 07:20 13.6 78 9.18 9.8 19 28 1019.9 12.8 20.8 27.2 42.6 111.7 107.0 368.5
08/05 07:10 13.4 76 8.84 9.2 24 35 1019.8 12.8 20.1 26.7 41.3 108.3 102.7 353.3
08/05 07:00 13.9 76 9.11 9.7 24 39 1019.6 12.8 20.7 26.9 42.1 110.5 105.6 363.7
08/05 06:50 13.8 76 9.06 9.6 26 33 1019.6 12.8 20.6 26.9 42.0 110.1 105.1 361.8
08/05 06:40 13.3 80 9.24 9.9 19 32 1019.6 12.8 21.0 27.3 43.0 112.8 108.2 372.7
08/05 06:30 13.3 84 9.71 10.7 20 32 1019.4 12.8 22.0 28.1 44.9 118.0 114.7 395.3
08/05 06:20 13.2 86 9.88 10.9 17 22 1019.4 12.8 22.4 28.4 45.7 120.1 117.2 404.1
08/05 06:10 13.4 82 9.53 10.4 19 35 1019.3 12.8 21.6 27.8 44.1 115.9 112.0 386.0
08/05 06:00 13.4 78 9.07 9.6 26 46 1019.2 12.8 20.6 27.0 42.2 110.7 105.7 364.0
08/05 05:50 13.5 82 9.59 10.6 22 30 1019 12.8 21.7 27.8 44.3 116.3 112.7 388.3
08/05 05:40 13.5 82 9.59 10.6 22 28 1018.9 12.8 21.7 27.8 44.3 116.3 112.7 388.3
08/05 05:30 13.9 79 9.47 10.3 26 43 1018.8 12.8 21.4 27.5 43.6 114.4 110.4 380.5
08/05 05:20 13.5 79 9.24 9.9 19 22 1018.7 12.8 21.0 27.2 42.8 112.4 107.8 371.5
08/05 05:10 13.5 84 9.83 10.8 17 22 1018.8 12.8 22.2 28.2 45.3 119.0 116.0 399.9
08/05 05:00 13.3 85 9.82 10.8 20 35 1018.7 12.8 22.2 28.3 45.4 119.2 116.1 400.4
08/05 04:50 13.4 86 10 11.1 17 24 1018.7 12.8 22.6 28.6 46.1 121.1 118.5 408.7
08/05 04:40 13 88 9.98 11 15 22 1018.5 12.8 22.6 28.6 46.2 121.5 118.8 409.8
08/05 04:30 13.2 89 10.22 11.4 20 37 1018.5 12.8 23.1 29.0 47.1 123.9 121.9 420.5
08/05 04:20 13.4 89 10.35 11.6 24 37 1018.4 12.8 23.4 29.2 47.6 125.1 123.4 425.8
08/05 04:10 13.4 89 10.35 11.6 20 26 1018.3 12.6 23.4 29.1 47.5 125.1 123.4 425.8
08/05 04:00 13.8 84 10.01 11.1 24 43 1018.1 12.6 22.6 28.4 45.8 120.5 118.0 406.9
08/05 03:50 13.9 81 9.71 10.8 22 33 1018 12.2 22.0 27.9 44.5 117.0 113.6 391.8
08/05 03:40 13.5 84 9.83 10.8 22 39 1017.9 12.2 22.2 28.2 45.2 118.9 115.9 399.6
08/05 03:30 13.4 88 10.23 11.5 20 43 1018 12.2 23.1 28.9 47.0 123.6 121.7 419.8
08/05 03:20 13.5 85 9.94 11 28 43 1017.9 12.2 22.5 28.4 45.7 120.2 117.4 405.0
08/05 03:10 13.3 85 9.82 10.8 26 35 1017.7 12 22.2 28.2 45.3 119.1 116.0 400.1
08/05 03:00 13.4 87 10.11 11.3 19 39 1017.7 12 22.8 28.7 46.5 122.2 119.9 413.8
08/05 02:50 13.3 88 10.17 11.3 24 33 1017.7 12 23.0 28.8 46.8 123.1 121.0 417.3
08/05 02:40 13.1 86 9.81 10.9 20 35 1017.8 12 22.2 28.3 45.4 119.3 116.2 400.7
08/05 02:30 13.3 87 10.05 11.2 20 39 1017.8 12 22.7 28.6 46.3 121.7 119.3 411.4
08/05 02:20 13.5 82 9.59 10.6 26 39 1017.6 11.4 21.7 27.8 44.2 116.2 112.5 387.9
08/05 02:10 13.2 82 9.42 10.2 19 30 1017.9 11.4 21.4 27.6 43.7 114.8 110.7 381.3
08/05 02:00 12.9 86 9.69 10.6 20 41 1017.9 11.4 22.0 28.2 45.0 118.3 114.9 395.9
08/05 01:50 13 84 9.53 10.3 32 46 1018 11.4 21.6 27.9 44.3 116.3 112.5 387.6
08/05 01:40 12.9 87 9.81 10.8 22 35 1018 11.4 22.2 28.4 45.5 119.6 116.5 401.8
08/05 01:30 13.1 88 10.04 11.2 20 33 1018.2 11.4 22.7 28.7 46.4 122.0 119.5 412.1
08/05 01:20 12.8 89 9.97 11 20 24 1018.2 11 22.6 28.7 46.3 121.6 119.0 410.2
08/05 01:10 12.9 90 10.14 11.3 15 22 1018.3 11 22.9 29.0 46.9 123.4 121.2 418.1
08/05 01:00 12.9 90 10.14 11.3 24 54 1018.2 11 22.9 28.9 46.9 123.4 121.2 418.1
08/05 00:50 12.9 92 10.37 11.6 33 54 1018.4 10.8 23.4 29.4 47.9 126.1 124.5 429.6
08/05 00:40 12.7 92 10.24 11.4 20 30 1018.4 10.8 23.2 29.2 47.5 124.9 123.0 424.2
08/05 00:30 12.3 93 10.1 11.2 17 43 1018.5 10.8 22.9 29.1 47.1 124.0 121.6 419.5
08/05 00:20 11.9 93 9.85 10.8 11 15 1018.5 10.6 22.4 28.8 46.3 121.7 118.7 409.2
08/05 00:10 11.7 93 9.73 10.6 13 15 1018.7 10.6 22.1 28.7 45.9 120.6 117.3 404.3
08/05 00:00 11.6 93 9.67 10.5 13 24 1018.8 10.4 22.0 28.6 45.7 120.1 116.6 401.9
07/05 23:50 11.6 93 9.67 10.5 15 20 1018.7 10.2 22.0 28.6 45.7 120.1 116.6 401.8
07/05 23:40 11.5 93 9.61 10.4 11 19 1018.9 9.8 21.9 28.5 45.5 119.6 115.9 399.4
07/05 23:30 11.4 93 9.55 10.3 15 24 1019 9.6 21.7 28.4 45.3 119.1 115.2 397.0
07/05 23:20 11.3 93 9.49 10.2 11 17 1019.1 9.4 21.6 28.4 45.1 118.5 114.6 394.6
07/05 23:10 11.3 93 9.49 10.2 11 15 1019.3 9.4 21.6 28.4 45.1 118.6 114.6 394.6
07/05 23:00 11.3 93 9.49 10.2 13 22 1019.3 9.2 21.6 28.4 45.1 118.6 114.6 394.6
07/05 22:50 11.2 93 9.43 10.1 11 17 1019.3 8.2 21.5 28.3 44.9 118.0 113.9 392.2
07/05 22:40 11.1 93 9.37 10 9 15 1019.8 7.8 21.4 28.3 44.8 117.6 113.2 389.9
07/05 22:30 11.1 93 9.37 10 15 24 1019.8 7.2 21.4 28.3 44.8 117.6 113.2 389.9
07/05 22:20 11.1 93 9.37 10 13 22 1019.9 6.8 21.4 28.3 44.8 117.6 113.2 389.9
07/05 22:10 11.1 92 9.27 9.8 13 19 1020 6.6 21.2 28.1 44.3 116.4 111.8 385.0
07/05 22:00 11 92 9.21 9.8 15 28 1020.1 5.6 21.0 28.0 44.1 115.9 111.1 382.6
07/05 21:50 11 92 9.21 9.7 15 19 1020 5 21.0 28.0 44.1 115.9 111.1 382.5
07/05 21:40 10.9 92 9.15 9.6 19 22 1020.2 4.8 20.9 28.0 43.9 115.4 110.4 380.1
07/05 21:30 10.9 92 9.15 9.7 15 26 1020.1 4.6 20.9 28.0 43.9 115.4 110.4 380.1
07/05 21:20 10.9 91 9.05 9.5 13 20 1020 4.4 20.7 27.8 43.5 114.2 109.0 375.1
07/05 21:10 10.7 91 8.94 9.3 17 20 1020 4.4 20.5 27.7 43.1 113.2 107.7 370.7
07/05 21:00 10.7 91 8.94 9.3 15 26 1020.1 4.4 20.5 27.7 43.1 113.3 107.8 370.7
07/05 20:50 10.7 91 8.94 9.3 13 17 1020 4.2 20.5 27.7 43.1 113.2 107.7 370.7
07/05 20:40 10.7 91 8.94 9.3 15 28 1019.9 4.2 20.5 27.7 43.1 113.2 107.7 370.7
07/05 20:30 10.6 91 8.88 9.2 13 24 1020.1 3.8 20.3 27.6 42.9 112.7 107.1 368.3
07/05 20:20 10.7 91 8.94 9.3 11 15 1020.2 3.8 20.5 27.7 43.2 113.3 107.8 370.8
07/05 20:10 10.6 91 8.88 9.2 13 15 1020.6 3.8 20.3 27.6 43.0 112.8 107.1 368.4
07/05 20:00 10.6 91 8.88 9.2 11 28 1020.7 3.4 20.3 27.6 43.0 112.8 107.1 368.4

Last Refresh: 08-May-2026 12:07:30

Bureau of Meteorology